Time;durP1;ratioP1;P1;durP2;ratioP2;P2;SDS_P1;SDS_P2;PMS_P1;PMS_P2;Temp;Humidity;BMP_temperature;BMP_pressure;BME280_temperature;BME280_humidity;BME280_pressure;Samples;Min_cycle;Max_cycle;Signal;HPM_P1;HPM_P2
2023/07/04 00:01:05;;;;;;;15.80;11.30;;;;;;;20.19;54.90;96424.88;108946;1273;22876;-90
2023/07/04 00:03:53;;;;;;;14.10;10.40;;;;;;;20.16;54.86;96425.84;108915;1271;62676;-90
2023/07/04 00:06:29;;;;;;;15.00;10.40;;;;;;;20.16;54.88;96425.45;108978;1273;24274;-90
2023/07/04 00:08:58;;;;;;;16.80;11.00;;;;;;;20.15;54.83;96424.65;108952;1271;22828;-90
2023/07/04 00:11:31;;;;;;;14.20;10.30;;;;;;;20.13;54.95;96428.14;108962;1273;27939;-90
2023/07/04 00:14:08;;;;;;;13.80;10.50;;;;;;;20.12;54.91;96424.02;108863;1274;82498;-90
2023/07/04 00:16:40;;;;;;;17.10;11.20;;;;;;;20.12;55.15;96417.85;108944;1274;22537;-90
2023/07/04 00:19:14;;;;;;;14.70;10.90;;;;;;;20.11;55.22;96421.60;108927;1274;22569;-90
2023/07/04 00:21:45;;;;;;;15.60;11.00;;;;;;;20.09;55.03;96423.09;108924;1274;22554;-90
2023/07/04 00:24:27;;;;;;;15.20;11.00;;;;;;;20.08;55.36;96423.52;108964;1267;22562;-91
2023/07/04 00:26:58;;;;;;;14.00;11.40;;;;;;;20.07;55.33;96423.35;109000;1273;22552;-90
2023/07/04 00:29:31;;;;;;;14.50;10.90;;;;;;;20.06;55.35;96425.16;108951;1271;22627;-90
2023/07/04 00:32:07;;;;;;;15.00;11.40;;;;;;;20.05;55.47;96421.52;106907;1264;2660599;-89
2023/07/04 00:34:44;;;;;;;15.40;10.10;;;;;;;20.06;55.55;96418.01;108919;1273;22544;-90
2023/07/04 00:37:21;;;;;;;14.80;11.00;;;;;;;20.04;55.59;96415.58;108965;1270;22559;-90
2023/07/04 00:39:53;;;;;;;14.80;11.20;;;;;;;20.01;55.67;96411.88;108998;1270;22536;-90
2023/07/04 00:42:22;;;;;;;17.00;11.60;;;;;;;19.99;55.80;96414.73;108915;1267;56537;-89
2023/07/04 00:44:55;;;;;;;18.30;11.30;;;;;;;19.98;55.99;96420.25;108946;1270;24247;-89
2023/07/04 00:47:33;;;;;;;17.80;10.60;;;;;;;19.97;56.14;96423.66;108945;1273;22551;-90
2023/07/04 00:50:07;;;;;;;17.30;11.40;;;;;;;19.96;56.11;96422.27;108924;1270;22524;-90
2023/07/04 00:52:48;;;;;;;18.40;11.30;;;;;;;19.97;56.27;96424.29;108895;1273;53055;-90
2023/07/04 00:55:16;;;;;;;15.70;10.70;;;;;;;19.96;56.31;96416.42;108924;1273;23199;-90
2023/07/04 00:57:47;;;;;;;15.50;10.80;;;;;;;19.95;56.39;96415.17;108971;1269;22557;-89
2023/07/04 01:00:21;;;;;;;14.70;10.50;;;;;;;19.93;56.43;96412.59;108936;1264;24415;-89
2023/07/04 01:02:52;;;;;;;15.30;11.00;;;;;;;19.90;56.60;96407.80;108907;1273;62453;-88
2023/07/04 01:05:29;;;;;;;15.10;11.30;;;;;;;19.87;56.69;96409.52;109019;1270;26480;-90
2023/07/04 01:08:04;;;;;;;15.60;11.50;;;;;;;19.84;56.99;96408.78;108978;1267;22642;-90
2023/07/04 01:10:40;;;;;;;14.80;10.90;;;;;;;19.81;57.03;96413.41;108986;1273;22551;-89
2023/07/04 01:13:33;;;;;;;15.60;10.70;;;;;;;19.79;57.21;96417.58;108868;1273;84275;-89
2023/07/04 01:16:07;;;;;;;13.80;11.10;;;;;;;19.78;57.38;96414.11;108975;1269;22541;-89
2023/07/04 01:18:37;;;;;;;13.80;10.10;;;;;;;19.75;57.57;96420.62;108965;1270;23984;-90
2023/07/04 01:21:09;;;;;;;16.10;10.50;;;;;;;19.72;57.74;96417.98;109009;1273;22528;-88
2023/07/04 01:23:48;;;;;;;14.90;11.40;;;;;;;19.69;57.83;96412.89;108904;1270;39746;-88
2023/07/04 01:26:31;;;;;;;15.30;10.70;;;;;;;19.68;57.88;96414.55;108935;1273;26440;-89
2023/07/04 01:29:06;;;;;;;14.90;10.60;;;;;;;19.64;58.03;96416.44;108967;1273;22612;-89
2023/07/04 01:31:40;;;;;;;14.60;10.40;;;;;;;19.60;58.32;96418.42;108932;1268;22531;-90
2023/07/04 01:34:13;;;;;;;14.30;10.60;;;;;;;19.57;58.39;96414.01;108898;1273;83628;-89
2023/07/04 01:36:43;;;;;;;15.70;11.00;;;;;;;19.52;58.53;96416.93;109009;1267;22528;-90
2023/07/04 01:39:18;;;;;;;14.00;10.40;;;;;;;19.48;58.76;96424.52;108998;1273;22535;-90
2023/07/04 01:41:47;;;;;;;15.00;10.80;;;;;;;19.48;58.92;96426.89;108979;1269;22536;-90
2023/07/04 01:44:26;;;;;;;14.70;10.60;;;;;;;19.47;59.07;96428.94;108906;1273;92788;-89
2023/07/04 01:46:56;;;;;;;14.80;10.80;;;;;;;19.48;59.36;96433.64;108926;1266;22694;-88
2023/07/04 01:49:25;;;;;;;17.60;10.90;;;;;;;19.47;59.43;96424.16;108944;1257;24165;-90
2023/07/04 01:52:00;;;;;;;19.00;11.20;;;;;;;19.48;59.60;96423.27;108944;1273;23265;-89
2023/07/04 01:54:30;;;;;;;16.70;11.20;;;;;;;19.47;59.65;96420.48;108899;1273;66008;-89
2023/07/04 01:56:59;;;;;;;15.70;11.20;;;;;;;19.46;59.79;96423.16;108983;1273;22554;-89
2023/07/04 01:59:28;;;;;;;13.90;10.60;;;;;;;19.46;59.90;96425.38;108973;1273;24383;-90
2023/07/04 02:02:01;;;;;;;16.80;11.30;;;;;;;19.44;59.94;96429.15;108965;1273;22543;-89
2023/07/04 02:04:36;;;;;;;16.10;11.50;;;;;;;19.41;60.15;96428.76;108877;1257;101331;-89
2023/07/04 02:07:09;;;;;;;14.60;10.90;;;;;;;19.40;60.29;96429.48;109024;1272;22551;-89
2023/07/04 02:09:40;;;;;;;15.70;11.20;;;;;;;19.38;60.43;96429.59;108976;1273;23202;-89
2023/07/04 02:12:12;;;;;;;13.80;9.90;;;;;;;19.38;60.43;96427.80;108985;1268;22630;-89
2023/07/04 02:14:41;;;;;;;15.30;10.90;;;;;;;19.37;60.71;96431.93;108944;1267;22567;-89
2023/07/04 02:17:15;;;;;;;14.20;10.90;;;;;;;19.36;60.82;96429.30;108964;1273;22637;-89
2023/07/04 02:19:48;;;;;;;15.70;10.40;;;;;;;19.36;60.84;96427.84;109037;1273;22537;-89
2023/07/04 02:22:24;;;;;;;16.00;10.90;;;;;;;19.37;60.91;96429.02;107455;1267;2004891;-90
2023/07/04 02:24:52;;;;;;;17.30;11.40;;;;;;;19.37;61.01;96430.48;108964;1273;22556;-89
2023/07/04 02:27:21;;;;;;;15.90;11.10;;;;;;;19.36;61.01;96429.07;108979;1267;22748;-89
2023/07/04 02:29:50;;;;;;;16.40;11.00;;;;;;;19.34;61.22;96428.63;109000;1267;22535;-88
2023/07/04 02:32:18;;;;;;;14.40;10.90;;;;;;;19.33;61.23;96424.46;108925;1267;68769;-88
2023/07/04 02:34:47;;;;;;;18.80;11.10;;;;;;;19.33;61.25;96431.37;108959;1264;22536;-92
2023/07/04 02:37:23;;;;;;;14.60;11.10;;;;;;;19.34;61.37;96431.25;108944;1268;22493;-90
2023/07/04 02:39:52;;;;;;;14.50;10.60;;;;;;;19.36;61.52;96425.39;109003;1273;22734;-91
2023/07/04 02:42:20;;;;;;;15.00;11.30;;;;;;;19.37;61.42;96427.92;108913;1273;31076;-91
2023/07/04 02:44:50;;;;;;;14.20;10.30;;;;;;;19.36;61.54;96432.43;108995;1273;22539;-92
2023/07/04 02:47:18;;;;;;;;;;;;;;;19.36;61.70;96430.91;108973;1273;26580;-92
2023/07/04 02:49:47;;;;;;;15.70;10.50;;;;;;;19.35;61.80;96432.80;108999;1273;25287;-92
2023/07/04 02:52:18;;;;;;;14.70;10.60;;;;;;;19.33;61.89;96432.38;108945;1269;22535;-92
2023/07/04 02:54:46;;;;;;;16.20;10.60;;;;;;;19.33;61.98;96432.20;108989;1269;23877;-91
2023/07/04 02:57:17;;;;;;;14.10;10.20;;;;;;;19.32;62.17;96434.48;109033;1267;22573;-92
2023/07/04 02:59:46;;;;;;;15.10;10.70;;;;;;;19.32;62.14;96434.17;109012;1273;22547;-93
2023/07/04 03:02:15;;;;;;;13.90;9.90;;;;;;;19.30;62.28;96432.52;108967;1273;22511;-91
2023/07/04 03:04:44;;;;;;;15.50;10.60;;;;;;;19.29;62.23;96429.64;108977;1273;22545;-92
2023/07/04 03:07:12;;;;;;;15.10;11.20;;;;;;;19.27;62.39;96427.80;108985;1265;26634;-92
2023/07/04 03:09:44;;;;;;;16.60;11.30;;;;;;;19.27;62.49;96430.02;109004;1268;22597;-91
2023/07/04 03:12:15;;;;;;;14.10;10.40;;;;;;;19.26;62.54;96428.31;108979;1273;22544;-93
2023/07/04 03:14:47;;;;;;;16.00;11.00;;;;;;;19.26;62.55;96428.60;108962;1273;22523;-90
2023/07/04 03:17:16;;;;;;;15.30;11.60;;;;;;;19.26;62.62;96429.83;108957;1266;24307;-92
2023/07/04 03:19:44;;;;;;;15.70;10.80;;;;;;;19.25;62.88;96425.59;109012;1267;22532;-91
2023/07/04 03:22:13;;;;;;;15.20;10.70;;;;;;;19.23;62.75;96426.59;108961;1267;22658;-91
2023/07/04 03:24:42;;;;;;;14.00;10.90;;;;;;;19.23;62.81;96432.67;108942;1273;49606;-92
2023/07/04 03:27:10;;;;;;;16.30;11.10;;;;;;;19.24;62.80;96435.30;108964;1273;22506;-91
2023/07/04 03:29:41;;;;;;;14.40;11.10;;;;;;;19.26;62.90;96437.59;108971;1273;23962;-92
2023/07/04 03:32:09;;;;;;;15.00;10.80;;;;;;;19.28;63.01;96442.11;108998;1267;22813;-91
2023/07/04 03:34:39;;;;;;;15.30;11.40;;;;;;;19.29;63.07;96443.59;108919;1270;83693;-93
2023/07/04 03:37:08;;;;;;;16.10;10.80;;;;;;;19.28;63.11;96443.66;108997;1273;22562;-92
2023/07/04 03:39:36;;;;;;;16.90;11.20;;;;;;;19.28;63.21;96448.15;109020;1270;22518;-92
2023/07/04 03:42:11;;;;;;;15.40;11.00;;;;;;;19.27;63.38;96446.29;109005;1273;22570;-91
2023/07/04 03:44:40;;;;;;;13.90;10.50;;;;;;;19.28;63.37;96451.31;107409;1270;2098746;-92
2023/07/04 03:47:09;;;;;;;12.80;10.30;;;;;;;19.28;63.38;96448.88;108960;1273;22561;-91
2023/07/04 03:49:41;;;;;;;14.50;10.30;;;;;;;19.29;63.50;96451.98;109006;1269;22557;-91
2023/07/04 03:52:12;;;;;;;14.50;11.20;;;;;;;19.30;63.65;96454.85;108946;1273;22547;-91
2023/07/04 03:54:42;;;;;;;14.80;10.90;;;;;;;19.30;63.67;96451.34;108919;1253;34262;-91
2023/07/04 03:57:18;;;;;;;13.80;10.90;;;;;;;19.30;63.51;96458.77;109008;1267;22595;-91
2023/07/04 03:59:47;;;;;;;15.60;11.30;;;;;;;19.30;63.84;96456.38;108998;1273;24259;-91
2023/07/04 04:02:20;;;;;;;16.50;11.30;;;;;;;19.31;64.02;96458.48;108962;1267;22531;-91
2023/07/04 04:04:51;;;;;;;16.30;11.00;;;;;;;19.31;64.18;96460.88;109014;1266;23856;-91
2023/07/04 04:07:22;;;;;;;13.90;10.70;;;;;;;19.31;64.14;96464.80;108990;1267;22560;-91
2023/07/04 04:09:51;;;;;;;15.70;10.80;;;;;;;19.32;64.33;96470.64;108978;1273;22601;-91
2023/07/04 04:12:19;;;;;;;15.40;10.60;;;;;;;19.34;64.43;96475.77;109031;1273;22573;-91
2023/07/04 04:14:50;;;;;;;14.00;10.50;;;;;;;19.34;64.58;96474.86;108968;1266;22537;-91
2023/07/04 04:17:20;;;;;;;16.70;11.40;;;;;;;19.36;64.26;96473.76;108934;1267;22576;-91
2023/07/04 04:19:52;;;;;;;13.60;10.30;;;;;;;19.38;64.40;96478.19;109007;1266;22603;-92
2023/07/04 04:22:25;;;;;;;15.40;11.10;;;;;;;19.40;64.30;96475.56;108983;1273;22587;-91
2023/07/04 04:24:54;;;;;;;14.50;10.70;;;;;;;19.43;64.44;96481.83;109062;1265;22562;-92
2023/07/04 04:27:23;;;;;;;14.30;10.40;;;;;;;19.45;64.59;96479.11;109101;1267;22621;-91
2023/07/04 04:30:01;;;;;;;16.20;10.60;;;;;;;19.45;64.37;96483.35;109043;1266;22606;-92
2023/07/04 04:32:30;;;;;;;14.70;10.50;;;;;;;19.47;64.77;96484.02;108988;1266;38662;-92
2023/07/04 04:35:02;;;;;;;13.70;10.20;;;;;;;19.49;64.77;96483.84;108938;1273;22527;-91
2023/07/04 04:37:35;;;;;;;15.60;11.40;;;;;;;19.50;64.78;96485.70;109041;1273;22528;-94
2023/07/04 04:44:02;;;;;;;14.70;11.20;;;;;;;19.52;64.98;96491.52;105956;1263;4571482;-94
2023/07/04 04:46:33;;;;;;;16.90;10.90;;;;;;;19.54;64.97;96495.46;109173;1266;22565;-94
2023/07/04 04:49:03;;;;;;;15.50;10.60;;;;;;;19.60;64.84;96497.80;109102;1273;25230;-94
2023/07/04 04:51:31;;;;;;;;;;;;;;;19.64;64.83;96498.67;109091;1262;24611;-93
2023/07/04 04:54:01;;;;;;;17.20;10.90;;;;;;;19.67;64.94;96498.38;109008;1273;61533;-93
2023/07/04 04:56:30;;;;;;;13.90;10.80;;;;;;;19.72;64.90;96499.93;109119;1273;24271;-93
2023/07/04 04:58:59;;;;;;;15.30;10.90;;;;;;;19.79;65.13;96502.73;109102;1270;25410;-92
2023/07/04 05:01:28;;;;;;;14.00;10.70;;;;;;;19.83;65.04;96501.38;109050;1273;24242;-92
2023/07/04 05:03:57;;;;;;;14.70;11.60;;;;;;;19.83;64.85;96505.92;108918;1273;109017;-93
2023/07/04 05:06:30;;;;;;;14.20;11.20;;;;;;;19.83;65.01;96500.55;109120;1250;24247;-93
2023/07/04 05:09:01;;;;;;;17.90;11.00;;;;;;;19.84;65.07;96500.40;109017;1265;22519;-91
2023/07/04 05:11:34;;;;;;;15.00;10.50;;;;;;;19.87;65.15;96497.13;109062;1270;22524;-91
2023/07/04 05:14:08;;;;;;;15.50;11.10;;;;;;;19.89;65.12;96495.19;108961;1267;61816;-91
2023/07/04 05:16:56;;;;;;;15.80;10.90;;;;;;;19.91;65.23;96498.02;108983;1273;22533;-91
2023/07/04 05:19:25;;;;;;;14.90;10.00;;;;;;;19.94;65.18;96504.63;109037;1265;25253;-93
2023/07/04 05:22:02;;;;;;;16.30;11.40;;;;;;;19.97;65.20;96503.02;108984;1267;22528;-91
2023/07/04 05:24:32;;;;;;;12.70;10.20;;;;;;;19.99;65.24;96504.31;109027;1267;50445;-90
2023/07/04 05:27:08;;;;;;;15.50;11.80;;;;;;;19.97;64.98;96499.54;109026;1273;22541;-92
2023/07/04 05:29:37;;;;;;;14.00;10.40;;;;;;;19.96;65.09;96504.61;109026;1273;24261;-93
2023/07/04 05:32:11;;;;;;;15.30;11.10;;;;;;;19.97;65.02;96504.80;109059;1266;22604;-93
2023/07/04 05:34:48;;;;;;;15.20;11.10;;;;;;;19.98;65.01;96506.11;108975;1267;61234;-92
2023/07/04 05:37:18;;;;;;;14.60;10.90;;;;;;;20.03;65.04;96505.28;109063;1267;25354;-90
2023/07/04 05:39:47;;;;;;;15.70;11.40;;;;;;;20.07;65.04;96506.54;109033;1267;22521;-91
2023/07/04 05:42:15;;;;;;;15.30;10.70;;;;;;;20.10;64.98;96512.02;108941;1263;22536;-92
2023/07/04 05:44:47;;;;;;;14.30;11.00;;;;;;;20.12;64.87;96513.51;107347;1275;2070530;-92
2023/07/04 05:47:23;;;;;;;14.80;11.10;;;;;;;20.09;64.86;96510.98;108851;1275;22528;-91
2023/07/04 05:49:51;;;;;;;;;;;;;;;20.10;64.95;96509.53;108823;1270;22664;-90
2023/07/04 05:52:20;;;;;;;12.70;10.10;;;;;;;20.10;65.07;96511.77;108817;1275;24272;-91
2023/07/04 05:54:50;;;;;;;15.40;11.00;;;;;;;20.14;65.05;96510.28;108859;1267;93873;-92
2023/07/04 05:57:19;;;;;;;15.80;11.70;;;;;;;20.12;64.98;96515.67;108966;1267;22539;-91
2023/07/04 05:59:48;;;;;;;14.70;10.60;;;;;;;20.10;65.04;96516.98;108967;1267;22533;-91
2023/07/04 06:02:16;;;;;;;14.50;11.50;;;;;;;20.08;65.12;96520.10;108961;1269;22657;-93
2023/07/04 06:04:45;;;;;;;14.80;11.60;;;;;;;20.06;65.18;96517.73;108900;1268;43053;-91
2023/07/04 06:07:13;;;;;;;16.70;11.90;;;;;;;20.07;65.33;96518.83;108998;1274;22638;-92
2023/07/04 06:09:42;;;;;;;14.20;10.90;;;;;;;20.08;65.42;96522.73;108936;1274;25325;-91
2023/07/04 06:12:12;;;;;;;16.60;11.30;;;;;;;20.09;65.62;96520.30;109076;1267;22665;-90
2023/07/04 06:14:41;;;;;;;16.50;10.90;;;;;;;20.13;65.82;96527.56;107356;1274;2309659;-91
2023/07/04 06:17:17;;;;;;;15.80;11.00;;;;;;;20.14;65.81;96525.30;108913;1274;22531;-91
2023/07/04 06:20:14;;;;;;;14.10;10.70;;;;;;;20.17;65.95;96520.35;109177;1267;22555;-92
2023/07/04 06:22:57;;;;;;;15.00;10.60;;;;;;;20.20;65.81;96520.58;109028;1271;45469;-91
2023/07/04 06:25:28;;;;;;;16.70;10.90;;;;;;;20.22;65.87;96517.86;109023;1267;25328;-91
2023/07/04 06:27:57;;;;;;;16.20;11.40;;;;;;;20.23;65.74;96517.13;109014;1274;23191;-91
2023/07/04 06:30:30;;;;;;;18.40;11.80;;;;;;;20.23;65.69;96521.21;108967;1274;23860;-92
2023/07/04 06:32:59;;;;;;;16.00;11.10;;;;;;;20.25;65.77;96524.10;107629;1274;1805961;-92
2023/07/04 06:35:27;;;;;;;17.20;10.90;;;;;;;20.27;65.81;96527.73;108915;1267;21846;-92
2023/07/04 06:37:56;;;;;;;14.60;10.80;;;;;;;20.28;65.68;96528.13;109011;1271;22521;-91
2023/07/04 06:40:32;;;;;;;16.80;11.60;;;;;;;20.31;65.92;96528.00;109002;1267;22566;-92
2023/07/04 06:43:05;;;;;;;16.30;11.90;;;;;;;20.51;66.08;96533.80;108944;1267;38872;-93
2023/07/04 06:45:35;;;;;;;15.30;11.00;;;;;;;20.77;65.99;96529.52;108918;1268;22527;-93
2023/07/04 06:48:17;;;;;;;14.50;11.30;;;;;;;20.88;65.57;96529.69;108928;1275;22550;-92
2023/07/04 06:50:56;;;;;;;15.60;11.80;;;;;;;21.30;66.11;96528.09;108939;1275;22601;-92
2023/07/04 06:53:24;;;;;;;;;;;;;;;21.91;65.57;96532.96;108961;1256;46876;-93
2023/07/04 06:56:08;;;;;;;16.20;11.30;;;;;;;22.46;64.95;96534.41;109080;1270;22584;-91
2023/07/04 06:58:41;;;;;;;16.70;11.40;;;;;;;22.94;63.77;96530.77;108910;1272;22534;-91
2023/07/04 07:01:15;;;;;;;17.10;11.90;;;;;;;23.06;62.82;96526.64;108999;1268;23004;-90
2023/07/04 07:03:44;;;;;;;16.50;10.90;;;;;;;23.04;62.39;96536.34;108907;1274;76046;-91
2023/07/04 07:06:16;;;;;;;15.30;11.40;;;;;;;23.05;62.42;96532.73;108952;1267;22571;-90
2023/07/04 07:08:51;;;;;;;14.40;11.30;;;;;;;23.33;62.16;96537.28;109076;1267;22547;-91
2023/07/04 07:11:27;;;;;;;14.70;11.30;;;;;;;23.73;61.71;96531.96;109092;1275;22528;-92
2023/07/04 07:13:59;;;;;;;15.20;11.10;;;;;;;23.77;60.80;96532.73;107520;1267;1994801;-91
2023/07/04 07:16:31;;;;;;;15.10;10.60;;;;;;;23.56;60.03;96533.31;108961;1268;22559;-90
2023/07/04 07:19:00;;;;;;;14.60;10.70;;;;;;;23.34;59.84;96536.61;108967;1273;22545;-92
2023/07/04 07:21:31;;;;;;;16.50;10.30;;;;;;;23.09;59.10;96536.65;109005;1271;22577;-93
2023/07/04 07:24:04;;;;;;;14.60;10.40;;;;;;;22.98;59.34;96540.58;108916;1274;37918;-91
2023/07/04 07:26:35;;;;;;;14.10;9.90;;;;;;;22.89;59.01;96538.56;109050;1271;23980;-91
2023/07/04 07:29:04;;;;;;;15.60;10.80;;;;;;;22.82;58.92;96541.67;109049;1274;24914;-91
2023/07/04 07:31:36;;;;;;;15.60;10.20;;;;;;;22.78;58.97;96544.36;108999;1268;22595;-90
2023/07/04 07:34:06;;;;;;;14.00;10.40;;;;;;;22.79;58.90;96545.84;108927;1251;65032;-91
2023/07/04 07:36:45;;;;;;;15.40;10.40;;;;;;;22.71;58.28;96548.15;109009;1273;23823;-91
2023/07/04 07:39:16;;;;;;;16.20;10.90;;;;;;;22.59;58.10;96550.16;108998;1267;22551;-92
2023/07/04 07:41:49;;;;;;;14.60;10.40;;;;;;;22.56;58.36;96549.58;109000;1267;22530;-93
2023/07/04 07:44:20;;;;;;;13.90;10.50;;;;;;;22.51;58.55;96551.25;108920;1268;64308;-92
2023/07/04 07:46:49;;;;;;;15.00;10.40;;;;;;;22.61;59.47;96552.99;108985;1273;25880;-92
2023/07/04 07:49:18;;;;;;;16.50;12.50;;;;;;;22.74;59.67;96554.47;108993;1267;22525;-91
2023/07/04 07:51:52;;;;;;;15.10;10.90;;;;;;;22.84;59.68;96552.67;109013;1273;22551;-92
2023/07/04 07:54:27;;;;;;;15.50;11.40;;;;;;;22.91;59.83;96548.09;107654;1274;1809273;-93
2023/07/04 07:56:58;;;;;;;15.70;11.80;;;;;;;23.00;59.88;96554.67;108957;1273;22553;-91
2023/07/04 07:59:29;;;;;;;17.00;11.90;;;;;;;23.11;59.97;96553.39;108977;1267;22578;-92
2023/07/04 08:01:58;;;;;;;15.80;11.80;;;;;;;23.20;59.80;96558.48;109118;1271;24211;-85
2023/07/04 08:04:27;;;;;;;16.70;12.60;;;;;;;23.25;59.83;96556.94;108915;1267;75060;-86
2023/07/04 08:06:56;;;;;;;17.00;11.60;;;;;;;23.35;59.68;96555.16;108858;1270;22576;-87
2023/07/04 08:09:27;;;;;;;16.50;11.00;;;;;;;23.41;59.68;96555.89;108863;1275;23186;-90
2023/07/04 08:16:25;;;;;;;14.90;10.70;;;;;;;24.02;59.98;96553.64;108917;1275;22541;-88
2023/07/04 08:19:03;;;;;;;;;;;;;;;24.32;58.72;96554.05;108898;1275;23248;-87
2023/07/04 08:21:37;;;;;;;14.40;10.50;;;;;;;24.39;57.82;96552.13;108932;1267;22639;-87
2023/07/04 08:24:10;;;;;;;13.30;9.90;;;;;;;24.30;57.10;96551.54;108905;1267;72753;-88
2023/07/04 08:26:41;;;;;;;14.70;10.30;;;;;;;24.21;57.01;96551.73;108942;1267;22537;-86
2023/07/04 08:29:16;;;;;;;14.90;10.50;;;;;;;24.23;56.91;96549.73;108992;1267;22531;-90
2023/07/04 08:31:49;;;;;;;14.90;10.20;;;;;;;24.26;56.55;96547.69;109041;1268;22549;-90
2023/07/04 08:34:25;;;;;;;15.70;9.60;;;;;;;24.34;56.11;96548.04;108979;1267;52730;-91
2023/07/04 08:36:55;;;;;;;13.30;9.60;;;;;;;24.37;55.62;96543.45;109114;1267;22579;-90
2023/07/04 08:39:25;;;;;;;14.60;9.80;;;;;;;24.37;55.58;96544.68;109045;1271;22535;-87
2023/07/04 08:41:59;;;;;;;13.80;10.00;;;;;;;24.41;55.31;96547.88;109238;1268;22585;-85
2023/07/04 08:44:34;;;;;;;15.00;10.30;;;;;;;24.43;54.87;96547.30;109032;1275;23799;-84
2023/07/04 08:47:04;;;;;;;11.90;9.10;;;;;;;24.47;54.59;96546.00;109049;1275;23694;-86
2023/07/04 08:49:41;;;;;;;;;;;;;;;24.42;54.34;96541.63;109021;1270;22522;-89
2023/07/04 08:52:36;;;;;;;12.30;9.70;;;;;;;24.34;53.94;96550.44;108909;1270;22581;-91
2023/07/04 08:55:14;;;;;;;14.60;9.50;;;;;;;24.24;53.88;96543.71;105039;1271;5276316;-89
2023/07/04 08:57:59;;;;;;;16.90;9.50;;;;;;;24.24;54.27;96543.02;108780;1260;307861;-95
2023/07/04 09:00:38;;;;;;;14.30;9.30;;;;;;;24.34;54.37;96543.23;109181;1274;22517;-95
2023/07/04 09:03:34;;;;;;;16.80;10.30;;;;;;;24.33;54.05;96546.39;109089;1271;22535;-95
2023/07/04 09:06:15;;;;;;;14.10;9.40;;;;;;;24.39;54.19;96544.92;108929;1270;22573;-93
2023/07/04 09:09:00;;;;;;;15.20;9.60;;;;;;;24.50;53.78;96546.52;109005;1275;22522;-91
2023/07/04 09:11:31;;;;;;;15.20;9.60;;;;;;;24.56;53.47;96541.71;108883;1273;22543;-92
2023/07/04 09:14:08;;;;;;;13.30;9.30;;;;;;;24.58;53.20;96544.30;108946;1260;32771;-92
2023/07/04 09:16:40;;;;;;;16.30;9.60;;;;;;;24.56;52.94;96548.61;109028;1274;23102;-89
2023/07/04 09:19:12;;;;;;;14.10;9.40;;;;;;;24.46;52.32;96551.05;108916;1274;22531;-89
2023/07/04 09:21:42;;;;;;;13.50;9.30;;;;;;;24.30;52.21;96551.02;109023;1270;22569;-90
2023/07/04 09:24:13;;;;;;;15.40;9.80;;;;;;;24.23;52.39;96547.58;108849;1267;78134;-91
2023/07/04 09:26:45;;;;;;;13.90;8.90;;;;;;;24.07;51.72;96549.30;109077;1268;22665;-92
2023/07/04 09:29:35;;;;;;;14.60;8.80;;;;;;;24.02;51.96;96545.73;109186;1268;25426;-85
2023/07/04 09:32:10;;;;;;;15.50;9.80;;;;;;;23.95;52.20;96548.05;109036;1274;22621;-86
2023/07/04 09:34:46;;;;;;;14.50;9.90;;;;;;;23.81;51.78;96544.14;108976;1274;58792;-85
2023/07/04 09:37:20;;;;;;;18.20;9.60;;;;;;;23.65;51.78;96543.84;108984;1274;22533;-87
2023/07/04 09:39:52;;;;;;;14.40;9.20;;;;;;;23.54;52.03;96544.51;109076;1267;22556;-88
2023/07/04 09:42:41;;;;;;;14.50;9.40;;;;;;;23.49;52.31;96544.93;109042;1270;22563;-90
2023/07/04 09:45:13;;;;;;;17.30;9.50;;;;;;;23.45;52.34;96546.75;108856;1274;45423;-87
2023/07/04 09:47:46;;;;;;;15.80;9.20;;;;;;;23.42;52.41;96548.33;109012;1274;23283;-87
2023/07/04 09:50:25;;;;;;;14.90;10.60;;;;;;;23.39;52.63;96548.30;109040;1267;22570;-93
2023/07/04 09:53:04;;;;;;;13.80;9.60;;;;;;;23.37;52.65;96550.64;108919;1267;22607;-92
2023/07/04 09:55:37;;;;;;;13.60;9.30;;;;;;;23.29;52.69;96546.96;108988;1274;23756;-92
2023/07/04 09:58:18;;;;;;;15.10;9.80;;;;;;;23.24;52.80;96549.05;109041;1264;22530;-83
2023/07/04 10:01:00;;;;;;;15.00;9.60;;;;;;;23.22;53.04;96545.52;109080;1274;25344;-84
2023/07/04 10:03:29;;;;;;;14.80;10.10;;;;;;;23.22;52.92;96545.92;109145;1269;72422;-90
2023/07/04 10:05:58;;;;;;;14.60;9.60;;;;;;;23.28;52.78;96543.93;109202;1268;25426;-91
2023/07/04 10:08:28;;;;;;;13.40;9.60;;;;;;;23.38;53.13;96543.94;109177;1274;22575;-88
2023/07/04 10:11:01;;;;;;;15.20;10.00;;;;;;;23.52;52.96;96544.16;109211;1267;23659;-90
2023/07/04 10:13:38;;;;;;;16.50;9.60;;;;;;;23.74;53.21;96543.27;109092;1273;31266;-90
2023/07/04 10:16:20;;;;;;;14.30;9.40;;;;;;;23.97;53.00;96544.05;109055;1267;22579;-94
2023/07/04 10:18:50;;;;;;;13.90;9.70;;;;;;;24.15;52.47;96542.98;109039;1267;25394;-93
2023/07/04 10:21:21;;;;;;;16.50;9.60;;;;;;;24.21;52.19;96540.82;109075;1274;22687;-94
2023/07/04 10:23:52;;;;;;;14.60;9.20;;;;;;;24.26;51.92;96538.87;107487;1271;2080119;-96
2023/07/04 10:26:27;;;;;;;15.70;9.30;;;;;;;24.29;51.87;96542.31;109051;1273;22527;-93
2023/07/04 10:28:56;;;;;;;13.30;9.50;;;;;;;24.30;51.91;96541.01;109079;1267;24257;-91
2023/07/04 10:31:26;;;;;;;13.20;9.40;;;;;;;24.38;51.92;96538.34;109051;1274;22534;-90
2023/07/04 10:33:56;;;;;;;;;;;;;;;24.32;51.41;96539.34;107552;1269;2022856;-92
2023/07/04 10:36:31;;;;;;;13.60;8.90;;;;;;;24.19;51.24;96540.86;109139;1274;22534;-83
2023/07/04 10:39:03;;;;;;;15.30;9.70;;;;;;;24.16;51.49;96548.01;109103;1267;22527;-82
2023/07/04 10:41:37;;;;;;;15.80;9.90;;;;;;;24.24;51.40;96550.05;108974;1271;22633;-84
2023/07/04 10:44:12;;;;;;;13.00;8.90;;;;;;;24.24;51.24;96554.25;108885;1274;25821;-87
2023/07/04 10:46:50;;;;;;;15.50;10.00;;;;;;;24.24;51.08;96555.56;109168;1274;22531;-86
2023/07/04 10:49:23;;;;;;;13.80;9.40;;;;;;;24.35;51.03;96555.48;109129;1274;25247;-89
2023/07/04 10:51:58;;;;;;;13.40;9.20;;;;;;;24.50;51.00;96552.18;109053;1274;23865;-83
2023/07/04 10:54:29;;;;;;;11.80;8.50;;;;;;;24.63;50.61;96553.24;109109;1268;23763;-87
2023/07/04 10:57:06;;;;;;;14.10;9.20;;;;;;;24.63;50.26;96556.50;109025;1274;22561;-88
2023/07/04 10:59:39;;;;;;;15.20;8.80;;;;;;;24.75;51.58;96550.98;109017;1267;22575;-89
2023/07/04 11:02:20;;;;;;;12.80;9.20;;;;;;;24.95;51.72;96554.59;109020;1274;22542;-79
2023/07/04 11:04:49;;;;;;;13.80;9.40;;;;;;;25.05;52.13;96549.61;108999;1274;44173;-89
2023/07/04 11:07:25;;;;;;;13.60;8.90;;;;;;;25.18;51.93;96546.84;108938;1270;22526;-89
2023/07/04 11:09:58;;;;;;;13.80;9.20;;;;;;;25.23;51.46;96546.44;108928;1274;25374;-90
2023/07/04 11:12:33;;;;;;;17.90;10.00;;;;;;;25.33;51.73;96543.72;108912;1274;22701;-86
2023/07/04 11:15:18;;;;;;;14.00;8.30;;;;;;;25.36;50.84;96544.91;108907;1274;22574;-86
2023/07/04 11:17:49;;;;;;;12.20;7.80;;;;;;;25.10;49.66;96544.52;109224;1274;22559;-90
2023/07/04 11:20:30;;;;;;;12.80;7.70;;;;;;;24.97;49.68;96539.89;109081;1274;22527;-90
2023/07/04 11:23:14;;;;;;;14.30;8.10;;;;;;;25.03;50.10;96539.43;108968;1257;24246;-83
2023/07/04 11:26:04;;;;;;;14.40;7.80;;;;;;;25.02;49.69;96535.46;108890;1268;22564;-82
2023/07/04 11:29:05;;;;;;;11.00;8.40;;;;;;;24.87;49.10;96529.56;108911;1274;25438;-82
2023/07/04 11:31:55;;;;;;;14.20;8.40;;;;;;;24.83;49.68;96529.30;108997;1274;22528;-82
2023/07/04 11:34:45;;;;;;;12.90;8.20;;;;;;;24.84;49.85;96527.99;108954;1267;25379;-90
2023/07/04 11:37:31;;;;;;;12.80;8.00;;;;;;;24.98;50.23;96529.84;109048;1274;22568;-89
2023/07/04 11:40:11;;;;;;;10.10;7.00;;;;;;;25.13;50.46;96535.56;109074;1267;22553;-86
2023/07/04 11:42:47;;;;;;;11.80;6.90;;;;;;;25.22;49.95;96536.12;108988;1274;25308;-88
2023/07/04 11:45:21;;;;;;;12.20;7.40;;;;;;;25.23;49.02;96532.56;108913;1274;38839;-86
2023/07/04 11:48:02;;;;;;;10.10;6.60;;;;;;;25.21;48.97;96529.91;109001;1271;24202;-88